sensor_id;sensor_type;location;lat;lon;timestamp;temperature;humidity
57242;DHT22;43095;53.302;5.786;2024-01-11T00:01:08;-4.70;89.00
57242;DHT22;43095;53.302;5.786;2024-01-11T00:03:38;-4.70;89.10
57242;DHT22;43095;53.302;5.786;2024-01-11T00:06:05;-4.70;89.10
57242;DHT22;43095;53.302;5.786;2024-01-11T00:08:33;-4.70;89.40
57242;DHT22;43095;53.302;5.786;2024-01-11T00:11:00;-4.70;89.50
57242;DHT22;43095;53.302;5.786;2024-01-11T00:13:28;-4.70;89.40
57242;DHT22;43095;53.302;5.786;2024-01-11T00:15:55;-4.70;89.50
57242;DHT22;43095;53.302;5.786;2024-01-11T00:18:23;-4.70;89.50
57242;DHT22;43095;53.302;5.786;2024-01-11T00:20:50;-4.70;89.40
57242;DHT22;43095;53.302;5.786;2024-01-11T00:23:18;-4.70;89.50
57242;DHT22;43095;53.302;5.786;2024-01-11T00:25:46;-4.70;89.50
57242;DHT22;43095;53.302;5.786;2024-01-11T00:28:15;-4.70;89.30
57242;DHT22;43095;53.302;5.786;2024-01-11T00:30:42;-4.60;89.30
57242;DHT22;43095;53.302;5.786;2024-01-11T00:33:10;-4.60;89.40
57242;DHT22;43095;53.302;5.786;2024-01-11T00:35:38;-4.70;89.40
57242;DHT22;43095;53.302;5.786;2024-01-11T00:38:05;-4.80;89.50
57242;DHT22;43095;53.302;5.786;2024-01-11T00:40:32;-4.80;89.60
57242;DHT22;43095;53.302;5.786;2024-01-11T00:43:00;-4.80;89.80
57242;DHT22;43095;53.302;5.786;2024-01-11T00:45:27;-4.80;89.90
57242;DHT22;43095;53.302;5.786;2024-01-11T00:47:54;-4.80;89.90
57242;DHT22;43095;53.302;5.786;2024-01-11T00:50:22;-4.80;89.90
57242;DHT22;43095;53.302;5.786;2024-01-11T00:52:49;-4.80;89.70
57242;DHT22;43095;53.302;5.786;2024-01-11T00:55:16;-4.80;89.80
57242;DHT22;43095;53.302;5.786;2024-01-11T00:57:44;-4.80;89.90
57242;DHT22;43095;53.302;5.786;2024-01-11T01:00:12;-4.80;89.90
57242;DHT22;43095;53.302;5.786;2024-01-11T01:02:42;-4.80;89.80
57242;DHT22;43095;53.302;5.786;2024-01-11T01:05:10;-4.80;89.70
57242;DHT22;43095;53.302;5.786;2024-01-11T01:07:37;-4.80;89.70
57242;DHT22;43095;53.302;5.786;2024-01-11T01:10:05;-4.80;89.70
57242;DHT22;43095;53.302;5.786;2024-01-11T01:12:34;-4.80;89.70
57242;DHT22;43095;53.302;5.786;2024-01-11T01:15:03;-4.80;89.60
57242;DHT22;43095;53.302;5.786;2024-01-11T01:17:31;-4.90;89.60
57242;DHT22;43095;53.302;5.786;2024-01-11T01:19:59;-4.90;89.50
57242;DHT22;43095;53.302;5.786;2024-01-11T01:22:36;-4.90;89.60
57242;DHT22;43095;53.302;5.786;2024-01-11T01:25:04;-4.90;89.70
57242;DHT22;43095;53.302;5.786;2024-01-11T01:27:34;-4.90;89.80
57242;DHT22;43095;53.302;5.786;2024-01-11T01:30:03;-4.90;89.80
57242;DHT22;43095;53.302;5.786;2024-01-11T01:32:31;-4.90;89.80
57242;DHT22;43095;53.302;5.786;2024-01-11T01:35:02;-4.90;89.80
57242;DHT22;43095;53.302;5.786;2024-01-11T01:37:33;-4.90;89.80
57242;DHT22;43095;53.302;5.786;2024-01-11T01:40:02;-4.90;89.80
57242;DHT22;43095;53.302;5.786;2024-01-11T01:42:30;-4.90;89.80
57242;DHT22;43095;53.302;5.786;2024-01-11T01:45:00;-4.90;89.70
57242;DHT22;43095;53.302;5.786;2024-01-11T01:47:31;-4.90;89.70
57242;DHT22;43095;53.302;5.786;2024-01-11T01:50:04;-4.90;89.60
57242;DHT22;43095;53.302;5.786;2024-01-11T01:52:34;-4.90;89.60
57242;DHT22;43095;53.302;5.786;2024-01-11T01:55:06;-5.00;89.60
57242;DHT22;43095;53.302;5.786;2024-01-11T01:57:42;-5.00;89.60
57242;DHT22;43095;53.302;5.786;2024-01-11T02:00:13;-5.00;89.60
57242;DHT22;43095;53.302;5.786;2024-01-11T02:02:43;-5.00;89.70
57242;DHT22;43095;53.302;5.786;2024-01-11T02:05:14;-5.00;89.70
57242;DHT22;43095;53.302;5.786;2024-01-11T02:07:44;-5.00;89.60
57242;DHT22;43095;53.302;5.786;2024-01-11T02:10:19;-5.00;89.60
57242;DHT22;43095;53.302;5.786;2024-01-11T02:12:52;-5.00;89.60
57242;DHT22;43095;53.302;5.786;2024-01-11T02:15:26;-5.00;89.50
57242;DHT22;43095;53.302;5.786;2024-01-11T02:17:57;-5.10;89.50
57242;DHT22;43095;53.302;5.786;2024-01-11T02:20:28;-5.10;89.50
57242;DHT22;43095;53.302;5.786;2024-01-11T02:23:05;-5.10;89.50
57242;DHT22;43095;53.302;5.786;2024-01-11T02:25:35;-5.10;89.50
57242;DHT22;43095;53.302;5.786;2024-01-11T02:28:05;-5.10;89.40
57242;DHT22;43095;53.302;5.786;2024-01-11T02:30:35;-5.10;89.50
57242;DHT22;43095;53.302;5.786;2024-01-11T02:33:09;-5.10;89.50
57242;DHT22;43095;53.302;5.786;2024-01-11T02:35:40;-5.20;89.60
57242;DHT22;43095;53.302;5.786;2024-01-11T02:38:18;-5.20;89.60
57242;DHT22;43095;53.302;5.786;2024-01-11T02:40:46;-5.20;89.60
57242;DHT22;43095;53.302;5.786;2024-01-11T02:43:14;-5.20;89.70
57242;DHT22;43095;53.302;5.786;2024-01-11T02:45:44;-5.20;89.70
57242;DHT22;43095;53.302;5.786;2024-01-11T02:48:16;-5.20;89.70
57242;DHT22;43095;53.302;5.786;2024-01-11T02:50:47;-5.20;89.70
57242;DHT22;43095;53.302;5.786;2024-01-11T02:53:17;-5.20;89.70
57242;DHT22;43095;53.302;5.786;2024-01-11T02:55:46;-5.20;89.70
57242;DHT22;43095;53.302;5.786;2024-01-11T02:58:13;-5.20;89.70
57242;DHT22;43095;53.302;5.786;2024-01-11T03:00:41;-5.20;89.70
57242;DHT22;43095;53.302;5.786;2024-01-11T03:03:16;-5.20;89.80
57242;DHT22;43095;53.302;5.786;2024-01-11T03:05:46;-5.20;89.80
57242;DHT22;43095;53.302;5.786;2024-01-11T03:08:14;-5.20;89.80
57242;DHT22;43095;53.302;5.786;2024-01-11T03:10:51;-5.30;89.80
57242;DHT22;43095;53.302;5.786;2024-01-11T03:13:26;-5.30;89.90
57242;DHT22;43095;53.302;5.786;2024-01-11T03:15:58;-5.40;89.90
57242;DHT22;43095;53.302;5.786;2024-01-11T03:18:26;-5.40;89.90
57242;DHT22;43095;53.302;5.786;2024-01-11T03:20:57;-5.40;90.00
57242;DHT22;43095;53.302;5.786;2024-01-11T03:23:36;-5.40;90.10
57242;DHT22;43095;53.302;5.786;2024-01-11T03:26:16;-5.40;90.10
57242;DHT22;43095;53.302;5.786;2024-01-11T03:28:47;-5.40;90.20
57242;DHT22;43095;53.302;5.786;2024-01-11T03:31:15;-5.40;90.30
57242;DHT22;43095;53.302;5.786;2024-01-11T03:33:43;-5.40;90.30
57242;DHT22;43095;53.302;5.786;2024-01-11T03:36:12;-5.40;90.30
57242;DHT22;43095;53.302;5.786;2024-01-11T03:38:40;-5.40;90.30
57242;DHT22;43095;53.302;5.786;2024-01-11T03:41:09;-5.50;90.40
57242;DHT22;43095;53.302;5.786;2024-01-11T03:43:38;-5.50;90.30
57242;DHT22;43095;53.302;5.786;2024-01-11T03:46:08;-5.50;90.40
57242;DHT22;43095;53.302;5.786;2024-01-11T03:48:36;-5.50;90.40
57242;DHT22;43095;53.302;5.786;2024-01-11T03:51:04;-5.50;90.40
57242;DHT22;43095;53.302;5.786;2024-01-11T03:53:43;-5.50;90.40
57242;DHT22;43095;53.302;5.786;2024-01-11T03:56:12;-5.60;90.50
57242;DHT22;43095;53.302;5.786;2024-01-11T03:58:40;-5.60;90.60
57242;DHT22;43095;53.302;5.786;2024-01-11T04:01:08;-5.60;90.70
57242;DHT22;43095;53.302;5.786;2024-01-11T04:03:37;-5.60;90.70
57242;DHT22;43095;53.302;5.786;2024-01-11T04:06:07;-5.60;90.80
57242;DHT22;43095;53.302;5.786;2024-01-11T04:08:35;-5.60;90.80
57242;DHT22;43095;53.302;5.786;2024-01-11T04:11:03;-5.60;90.90
57242;DHT22;43095;53.302;5.786;2024-01-11T04:13:32;-5.60;91.00
57242;DHT22;43095;53.302;5.786;2024-01-11T04:16:05;-5.60;91.00
57242;DHT22;43095;53.302;5.786;2024-01-11T04:18:40;-5.60;91.10
57242;DHT22;43095;53.302;5.786;2024-01-11T04:21:08;-5.60;91.10
57242;DHT22;43095;53.302;5.786;2024-01-11T04:23:48;-5.60;91.20
57242;DHT22;43095;53.302;5.786;2024-01-11T04:26:16;-5.60;91.50
57242;DHT22;43095;53.302;5.786;2024-01-11T04:28:48;-5.60;91.40
57242;DHT22;43095;53.302;5.786;2024-01-11T04:31:19;-5.60;91.30
57242;DHT22;43095;53.302;5.786;2024-01-11T04:33:46;-5.60;91.30
57242;DHT22;43095;53.302;5.786;2024-01-11T04:36:14;-5.60;91.40
57242;DHT22;43095;53.302;5.786;2024-01-11T04:38:41;-5.60;91.50
57242;DHT22;43095;53.302;5.786;2024-01-11T04:43:42;-5.60;91.60
57242;DHT22;43095;53.302;5.786;2024-01-11T04:46:21;-5.40;91.90
57242;DHT22;43095;53.302;5.786;2024-01-11T04:48:51;-5.40;92.10
57242;DHT22;43095;53.302;5.786;2024-01-11T04:51:21;-5.30;92.40
57242;DHT22;43095;53.302;5.786;2024-01-11T04:53:49;-5.20;92.30
57242;DHT22;43095;53.302;5.786;2024-01-11T04:56:17;-5.20;92.20
57242;DHT22;43095;53.302;5.786;2024-01-11T04:58:45;-5.20;92.50
57242;DHT22;43095;53.302;5.786;2024-01-11T05:03:50;-5.00;92.20
57242;DHT22;43095;53.302;5.786;2024-01-11T05:06:22;-4.90;92.20
57242;DHT22;43095;53.302;5.786;2024-01-11T05:08:55;-4.90;92.20
57242;DHT22;43095;53.302;5.786;2024-01-11T05:11:25;-4.80;92.20
57242;DHT22;43095;53.302;5.786;2024-01-11T05:13:55;-4.70;92.20
57242;DHT22;43095;53.302;5.786;2024-01-11T05:16:38;-4.60;92.30
57242;DHT22;43095;53.302;5.786;2024-01-11T05:19:11;-4.60;92.30
57242;DHT22;43095;53.302;5.786;2024-01-11T05:21:39;-4.60;92.30
57242;DHT22;43095;53.302;5.786;2024-01-11T05:24:22;-4.40;92.60
57242;DHT22;43095;53.302;5.786;2024-01-11T05:26:52;-4.40;92.60
57242;DHT22;43095;53.302;5.786;2024-01-11T05:29:20;-4.30;92.40
57242;DHT22;43095;53.302;5.786;2024-01-11T05:31:54;-4.30;92.40
57242;DHT22;43095;53.302;5.786;2024-01-11T05:34:22;-4.20;92.60
57242;DHT22;43095;53.302;5.786;2024-01-11T05:36:53;-4.20;92.60
57242;DHT22;43095;53.302;5.786;2024-01-11T05:39:31;-4.10;92.60
57242;DHT22;43095;53.302;5.786;2024-01-11T05:42:07;-4.10;92.60
57242;DHT22;43095;53.302;5.786;2024-01-11T05:44:36;-4.00;92.60
57242;DHT22;43095;53.302;5.786;2024-01-11T05:47:14;-4.00;92.60
57242;DHT22;43095;53.302;5.786;2024-01-11T05:49:52;-3.90;92.60
57242;DHT22;43095;53.302;5.786;2024-01-11T05:52:19;-3.80;92.50
57242;DHT22;43095;53.302;5.786;2024-01-11T05:54:51;-3.80;92.70
57242;DHT22;43095;53.302;5.786;2024-01-11T05:57:21;-3.80;92.60
57242;DHT22;43095;53.302;5.786;2024-01-11T05:59:51;-3.70;92.50
57242;DHT22;43095;53.302;5.786;2024-01-11T06:02:22;-3.60;92.50
57242;DHT22;43095;53.302;5.786;2024-01-11T06:04:57;-3.60;92.50
57242;DHT22;43095;53.302;5.786;2024-01-11T06:07:25;-3.60;92.50
57242;DHT22;43095;53.302;5.786;2024-01-11T06:09:58;-3.60;92.50
57242;DHT22;43095;53.302;5.786;2024-01-11T06:12:30;-3.50;92.50
57242;DHT22;43095;53.302;5.786;2024-01-11T06:15:04;-3.40;92.60
57242;DHT22;43095;53.302;5.786;2024-01-11T06:17:34;-3.40;92.50
57242;DHT22;43095;53.302;5.786;2024-01-11T06:20:06;-3.40;92.50
57242;DHT22;43095;53.302;5.786;2024-01-11T06:22:41;-3.30;92.50
57242;DHT22;43095;53.302;5.786;2024-01-11T06:25:22;-3.30;92.50
57242;DHT22;43095;53.302;5.786;2024-01-11T06:28:08;-3.20;92.50
57242;DHT22;43095;53.302;5.786;2024-01-11T06:30:41;-3.20;92.40
57242;DHT22;43095;53.302;5.786;2024-01-11T06:33:12;-3.20;92.20
57242;DHT22;43095;53.302;5.786;2024-01-11T06:35:52;-3.20;92.10
57242;DHT22;43095;53.302;5.786;2024-01-11T06:38:20;-3.10;91.80
57242;DHT22;43095;53.302;5.786;2024-01-11T06:41:05;-3.10;91.60
57242;DHT22;43095;53.302;5.786;2024-01-11T06:43:38;-3.00;91.20
57242;DHT22;43095;53.302;5.786;2024-01-11T06:46:12;-3.00;91.00
57242;DHT22;43095;53.302;5.786;2024-01-11T06:48:40;-3.00;90.70
57242;DHT22;43095;53.302;5.786;2024-01-11T06:51:21;-3.00;90.50
57242;DHT22;43095;53.302;5.786;2024-01-11T06:53:51;-2.90;90.60
57242;DHT22;43095;53.302;5.786;2024-01-11T06:56:33;-2.90;90.60
57242;DHT22;43095;53.302;5.786;2024-01-11T06:59:04;-2.90;90.50
57242;DHT22;43095;53.302;5.786;2024-01-11T07:01:39;-2.80;90.40
57242;DHT22;43095;53.302;5.786;2024-01-11T07:04:11;-2.80;90.30
57242;DHT22;43095;53.302;5.786;2024-01-11T07:06:41;-2.80;90.30
57242;DHT22;43095;53.302;5.786;2024-01-11T07:09:13;-2.70;90.30
57242;DHT22;43095;53.302;5.786;2024-01-11T07:11:50;-2.70;90.30
57242;DHT22;43095;53.302;5.786;2024-01-11T07:14:22;-2.70;90.30
57242;DHT22;43095;53.302;5.786;2024-01-11T07:17:12;-2.70;90.20
57242;DHT22;43095;53.302;5.786;2024-01-11T07:19:58;-2.60;90.20
57242;DHT22;43095;53.302;5.786;2024-01-11T07:22:34;-2.60;90.10
57242;DHT22;43095;53.302;5.786;2024-01-11T07:25:10;-2.60;90.10
57242;DHT22;43095;53.302;5.786;2024-01-11T07:27:45;-2.60;90.20
57242;DHT22;43095;53.302;5.786;2024-01-11T07:30:27;-2.50;90.20
57242;DHT22;43095;53.302;5.786;2024-01-11T07:33:05;-2.50;90.30
57242;DHT22;43095;53.302;5.786;2024-01-11T07:35:41;-2.50;90.30
57242;DHT22;43095;53.302;5.786;2024-01-11T07:38:13;-2.50;90.40
57242;DHT22;43095;53.302;5.786;2024-01-11T07:40:45;-2.40;90.30
57242;DHT22;43095;53.302;5.786;2024-01-11T07:43:24;-2.40;90.30
57242;DHT22;43095;53.302;5.786;2024-01-11T07:46:15;-2.40;90.30
57242;DHT22;43095;53.302;5.786;2024-01-11T07:48:53;-2.30;90.40
57242;DHT22;43095;53.302;5.786;2024-01-11T07:51:30;-2.30;90.40
57242;DHT22;43095;53.302;5.786;2024-01-11T07:54:05;-2.30;90.40
57242;DHT22;43095;53.302;5.786;2024-01-11T07:57:10;-2.30;90.50
57242;DHT22;43095;53.302;5.786;2024-01-11T07:59:49;-2.20;90.60
57242;DHT22;43095;53.302;5.786;2024-01-11T08:11:25;-2.10;91.00
57242;DHT22;43095;53.302;5.786;2024-01-11T08:15:30;-2.10;90.90
57242;DHT22;43095;53.302;5.786;2024-01-11T08:28:16;-2.10;91.10
57242;DHT22;43095;53.302;5.786;2024-01-11T08:32:47;-2.10;91.40
57242;DHT22;43095;53.302;5.786;2024-01-11T08:36:53;-2.00;91.60
57242;DHT22;43095;53.302;5.786;2024-01-11T08:39:35;-1.90;91.50
57242;DHT22;43095;53.302;5.786;2024-01-11T08:42:18;-1.80;91.60
57242;DHT22;43095;53.302;5.786;2024-01-11T08:44:47;-1.80;91.80
57242;DHT22;43095;53.302;5.786;2024-01-11T08:47:35;-1.80;91.70
57242;DHT22;43095;53.302;5.786;2024-01-11T08:50:12;-1.70;91.80
57242;DHT22;43095;53.302;5.786;2024-01-11T08:52:51;-1.60;91.80
57242;DHT22;43095;53.302;5.786;2024-01-11T08:55:24;-1.60;92.00
57242;DHT22;43095;53.302;5.786;2024-01-11T08:57:53;-1.60;91.90
57242;DHT22;43095;53.302;5.786;2024-01-11T09:00:30;-1.50;92.10
57242;DHT22;43095;53.302;5.786;2024-01-11T09:03:20;-1.50;92.10
57242;DHT22;43095;53.302;5.786;2024-01-11T09:05:51;-1.40;92.50
57242;DHT22;43095;53.302;5.786;2024-01-11T09:08:19;-1.30;92.60
57242;DHT22;43095;53.302;5.786;2024-01-11T09:10:57;-1.30;92.60
57242;DHT22;43095;53.302;5.786;2024-01-11T09:13:28;-1.20;92.60
57242;DHT22;43095;53.302;5.786;2024-01-11T09:16:19;-1.10;93.00
57242;DHT22;43095;53.302;5.786;2024-01-11T09:18:53;-1.10;92.90
57242;DHT22;43095;53.302;5.786;2024-01-11T09:21:55;-1.00;93.20
57242;DHT22;43095;53.302;5.786;2024-01-11T09:24:48;-0.90;93.20
57242;DHT22;43095;53.302;5.786;2024-01-11T09:27:44;-0.90;93.90
57242;DHT22;43095;53.302;5.786;2024-01-11T09:30:36;-0.80;93.50
57242;DHT22;43095;53.302;5.786;2024-01-11T09:33:12;-0.70;93.40
57242;DHT22;43095;53.302;5.786;2024-01-11T09:35:51;-0.70;93.40
57242;DHT22;43095;53.302;5.786;2024-01-11T09:38:38;-0.60;93.60
57242;DHT22;43095;53.302;5.786;2024-01-11T09:41:55;-0.60;93.60
57242;DHT22;43095;53.302;5.786;2024-01-11T09:45:02;-0.50;93.80
57242;DHT22;43095;53.302;5.786;2024-01-11T09:47:47;-0.40;93.80
57242;DHT22;43095;53.302;5.786;2024-01-11T09:50:20;-0.30;93.90
57242;DHT22;43095;53.302;5.786;2024-01-11T09:53:15;-0.20;93.90
57242;DHT22;43095;53.302;5.786;2024-01-11T09:56:12;-0.10;94.00
57242;DHT22;43095;53.302;5.786;2024-01-11T09:58:50;-0.10;94.20
57242;DHT22;43095;53.302;5.786;2024-01-11T10:01:19;0.00;94.30
57242;DHT22;43095;53.302;5.786;2024-01-11T10:04:02;0.00;94.30
57242;DHT22;43095;53.302;5.786;2024-01-11T10:06:38;0.00;94.30
57242;DHT22;43095;53.302;5.786;2024-01-11T10:09:22;0.10;94.40
57242;DHT22;43095;53.302;5.786;2024-01-11T10:11:56;0.20;94.50
57242;DHT22;43095;53.302;5.786;2024-01-11T10:14:26;0.30;94.40
57242;DHT22;43095;53.302;5.786;2024-01-11T10:17:05;0.30;94.40
57242;DHT22;43095;53.302;5.786;2024-01-11T10:20:01;0.40;94.70
57242;DHT22;43095;53.302;5.786;2024-01-11T10:22:43;0.50;94.90
57242;DHT22;43095;53.302;5.786;2024-01-11T10:25:19;0.60;95.00
57242;DHT22;43095;53.302;5.786;2024-01-11T10:27:49;0.60;95.20
57242;DHT22;43095;53.302;5.786;2024-01-11T10:30:47;0.80;95.40
57242;DHT22;43095;53.302;5.786;2024-01-11T10:33:34;0.90;95.40
57242;DHT22;43095;53.302;5.786;2024-01-11T10:36:06;1.00;95.50
57242;DHT22;43095;53.302;5.786;2024-01-11T10:39:16;1.00;95.50
57242;DHT22;43095;53.302;5.786;2024-01-11T10:42:14;1.10;95.70
57242;DHT22;43095;53.302;5.786;2024-01-11T10:44:57;1.20;95.80
57242;DHT22;43095;53.302;5.786;2024-01-11T10:47:37;1.30;96.10
57242;DHT22;43095;53.302;5.786;2024-01-11T10:50:11;1.50;97.20
57242;DHT22;43095;53.302;5.786;2024-01-11T10:53:04;1.60;98.40
57242;DHT22;43095;53.302;5.786;2024-01-11T10:55:38;1.80;98.30
57242;DHT22;43095;53.302;5.786;2024-01-11T10:58:22;2.00;98.90
57242;DHT22;43095;53.302;5.786;2024-01-11T11:00:53;2.10;99.20
57242;DHT22;43095;53.302;5.786;2024-01-11T11:03:23;2.20;99.20
57242;DHT22;43095;53.302;5.786;2024-01-11T11:05:55;2.30;99.10
57242;DHT22;43095;53.302;5.786;2024-01-11T11:08:23;2.40;98.60
57242;DHT22;43095;53.302;5.786;2024-01-11T11:10:59;2.50;99.10
57242;DHT22;43095;53.302;5.786;2024-01-11T11:13:31;2.50;99.10
57242;DHT22;43095;53.302;5.786;2024-01-11T11:15:59;2.60;99.50
57242;DHT22;43095;53.302;5.786;2024-01-11T11:18:28;2.70;99.90
57242;DHT22;43095;53.302;5.786;2024-01-11T11:20:55;2.80;99.90
57242;DHT22;43095;53.302;5.786;2024-01-11T11:23:23;2.90;99.90
57242;DHT22;43095;53.302;5.786;2024-01-11T11:25:54;2.90;99.90
57242;DHT22;43095;53.302;5.786;2024-01-11T11:28:26;3.00;99.90
57242;DHT22;43095;53.302;5.786;2024-01-11T11:30:53;3.00;99.90
57242;DHT22;43095;53.302;5.786;2024-01-11T11:33:25;3.10;99.90
57242;DHT22;43095;53.302;5.786;2024-01-11T11:35:54;3.10;99.90
57242;DHT22;43095;53.302;5.786;2024-01-11T11:38:29;3.20;99.90
57242;DHT22;43095;53.302;5.786;2024-01-11T11:40:59;3.30;99.90
57242;DHT22;43095;53.302;5.786;2024-01-11T11:43:28;3.30;99.90
57242;DHT22;43095;53.302;5.786;2024-01-11T11:45:57;3.30;99.90
57242;DHT22;43095;53.302;5.786;2024-01-11T11:53:37;3.40;99.50
57242;DHT22;43095;53.302;5.786;2024-01-11T11:56:06;3.40;99.20
57242;DHT22;43095;53.302;5.786;2024-01-11T11:58:34;3.40;99.20
57242;DHT22;43095;53.302;5.786;2024-01-11T12:01:03;3.50;99.10
57242;DHT22;43095;53.302;5.786;2024-01-11T12:03:36;3.50;99.20
57242;DHT22;43095;53.302;5.786;2024-01-11T12:06:06;3.50;98.90
57242;DHT22;43095;53.302;5.786;2024-01-11T12:08:36;3.50;98.90
57242;DHT22;43095;53.302;5.786;2024-01-11T12:11:04;3.50;98.80
57242;DHT22;43095;53.302;5.786;2024-01-11T12:13:32;3.50;98.70
57242;DHT22;43095;53.302;5.786;2024-01-11T12:16:00;3.50;98.60
57242;DHT22;43095;53.302;5.786;2024-01-11T12:18:27;3.50;98.50
57242;DHT22;43095;53.302;5.786;2024-01-11T12:20:55;3.50;98.70
57242;DHT22;43095;53.302;5.786;2024-01-11T12:23:22;3.50;98.50
57242;DHT22;43095;53.302;5.786;2024-01-11T12:25:49;3.50;98.40
57242;DHT22;43095;53.302;5.786;2024-01-11T12:28:17;3.50;98.30
57242;DHT22;43095;53.302;5.786;2024-01-11T12:30:45;3.60;98.30
57242;DHT22;43095;53.302;5.786;2024-01-11T12:33:14;3.50;98.10
57242;DHT22;43095;53.302;5.786;2024-01-11T12:35:42;3.50;98.00
57242;DHT22;43095;53.302;5.786;2024-01-11T12:38:10;3.50;97.90
57242;DHT22;43095;53.302;5.786;2024-01-11T12:40:38;3.50;97.70
57242;DHT22;43095;53.302;5.786;2024-01-11T12:43:06;3.50;97.40
57242;DHT22;43095;53.302;5.786;2024-01-11T12:45:37;3.50;97.30
57242;DHT22;43095;53.302;5.786;2024-01-11T12:48:08;3.60;97.20
57242;DHT22;43095;53.302;5.786;2024-01-11T12:50:36;3.60;96.90
57242;DHT22;43095;53.302;5.786;2024-01-11T12:53:10;3.60;96.90
57242;DHT22;43095;53.302;5.786;2024-01-11T12:56:03;3.70;96.90
57242;DHT22;43095;53.302;5.786;2024-01-11T12:58:38;3.70;96.80
57242;DHT22;43095;53.302;5.786;2024-01-11T13:01:06;3.70;96.70
57242;DHT22;43095;53.302;5.786;2024-01-11T13:03:35;3.70;96.60
57242;DHT22;43095;53.302;5.786;2024-01-11T13:06:04;3.80;96.60
57242;DHT22;43095;53.302;5.786;2024-01-11T13:08:32;3.90;96.50
57242;DHT22;43095;53.302;5.786;2024-01-11T13:11:01;3.90;96.50
57242;DHT22;43095;53.302;5.786;2024-01-11T13:13:34;3.90;96.40
57242;DHT22;43095;53.302;5.786;2024-01-11T13:16:05;3.90;96.30
57242;DHT22;43095;53.302;5.786;2024-01-11T13:18:41;4.00;96.10
57242;DHT22;43095;53.302;5.786;2024-01-11T13:21:09;4.00;95.80
57242;DHT22;43095;53.302;5.786;2024-01-11T13:23:37;4.00;95.40
57242;DHT22;43095;53.302;5.786;2024-01-11T13:26:05;4.00;95.40
57242;DHT22;43095;53.302;5.786;2024-01-11T13:28:33;4.00;95.10
57242;DHT22;43095;53.302;5.786;2024-01-11T13:31:01;4.00;94.90
57242;DHT22;43095;53.302;5.786;2024-01-11T13:33:29;4.10;94.90
57242;DHT22;43095;53.302;5.786;2024-01-11T13:35:58;4.00;94.70
57242;DHT22;43095;53.302;5.786;2024-01-11T13:38:26;4.00;94.60
57242;DHT22;43095;53.302;5.786;2024-01-11T13:40:53;4.00;94.30
57242;DHT22;43095;53.302;5.786;2024-01-11T13:43:21;4.00;94.20
57242;DHT22;43095;53.302;5.786;2024-01-11T13:45:49;4.00;94.00
57242;DHT22;43095;53.302;5.786;2024-01-11T13:48:16;4.00;93.90
57242;DHT22;43095;53.302;5.786;2024-01-11T13:50:44;4.00;93.60
57242;DHT22;43095;53.302;5.786;2024-01-11T13:53:11;4.00;93.80
57242;DHT22;43095;53.302;5.786;2024-01-11T13:55:39;4.10;93.90
57242;DHT22;43095;53.302;5.786;2024-01-11T13:58:07;4.10;93.90
57242;DHT22;43095;53.302;5.786;2024-01-11T14:00:35;4.20;93.80
57242;DHT22;43095;53.302;5.786;2024-01-11T14:03:02;4.20;93.80
57242;DHT22;43095;53.302;5.786;2024-01-11T14:05:33;4.20;93.70
57242;DHT22;43095;53.302;5.786;2024-01-11T14:08:01;4.20;93.60
57242;DHT22;43095;53.302;5.786;2024-01-11T14:10:32;4.20;93.60
57242;DHT22;43095;53.302;5.786;2024-01-11T14:13:02;4.10;93.50
57242;DHT22;43095;53.302;5.786;2024-01-11T14:15:32;4.10;93.50
57242;DHT22;43095;53.302;5.786;2024-01-11T14:18:00;4.10;93.40
57242;DHT22;43095;53.302;5.786;2024-01-11T14:20:27;4.10;93.40
57242;DHT22;43095;53.302;5.786;2024-01-11T14:22:55;4.10;93.40
57242;DHT22;43095;53.302;5.786;2024-01-11T14:25:23;4.10;93.50
57242;DHT22;43095;53.302;5.786;2024-01-11T14:27:56;4.10;93.40
57242;DHT22;43095;53.302;5.786;2024-01-11T14:30:23;4.20;93.20
57242;DHT22;43095;53.302;5.786;2024-01-11T14:32:51;4.20;93.10
57242;DHT22;43095;53.302;5.786;2024-01-11T14:35:18;4.20;93.00
57242;DHT22;43095;53.302;5.786;2024-01-11T14:37:47;4.20;93.00
57242;DHT22;43095;53.302;5.786;2024-01-11T14:40:14;4.20;92.90
57242;DHT22;43095;53.302;5.786;2024-01-11T14:42:42;4.10;93.00
57242;DHT22;43095;53.302;5.786;2024-01-11T14:45:10;4.10;93.00
57242;DHT22;43095;53.302;5.786;2024-01-11T14:47:37;4.00;92.90
57242;DHT22;43095;53.302;5.786;2024-01-11T14:50:05;4.00;92.90
57242;DHT22;43095;53.302;5.786;2024-01-11T14:52:37;4.00;93.00
57242;DHT22;43095;53.302;5.786;2024-01-11T14:55:08;4.00;93.00
57242;DHT22;43095;53.302;5.786;2024-01-11T14:57:41;3.90;93.00
57242;DHT22;43095;53.302;5.786;2024-01-11T15:00:08;3.90;93.00
57242;DHT22;43095;53.302;5.786;2024-01-11T15:02:37;3.90;92.90
57242;DHT22;43095;53.302;5.786;2024-01-11T15:05:05;3.90;92.80
57242;DHT22;43095;53.302;5.786;2024-01-11T15:07:33;3.90;92.80
57242;DHT22;43095;53.302;5.786;2024-01-11T15:10:00;3.90;92.90
57242;DHT22;43095;53.302;5.786;2024-01-11T15:12:27;3.90;92.90
57242;DHT22;43095;53.302;5.786;2024-01-11T15:14:54;3.90;92.90
57242;DHT22;43095;53.302;5.786;2024-01-11T15:17:22;3.90;92.80
57242;DHT22;43095;53.302;5.786;2024-01-11T15:19:49;3.90;92.80
57242;DHT22;43095;53.302;5.786;2024-01-11T15:22:16;3.90;92.70
57242;DHT22;43095;53.302;5.786;2024-01-11T15:24:43;3.90;92.60
57242;DHT22;43095;53.302;5.786;2024-01-11T15:27:11;3.90;92.20
57242;DHT22;43095;53.302;5.786;2024-01-11T15:29:38;3.90;92.10
57242;DHT22;43095;53.302;5.786;2024-01-11T15:32:08;3.90;92.00
57242;DHT22;43095;53.302;5.786;2024-01-11T15:34:37;3.90;92.00
57242;DHT22;43095;53.302;5.786;2024-01-11T15:37:05;3.90;92.10
57242;DHT22;43095;53.302;5.786;2024-01-11T15:39:33;3.90;92.20
57242;DHT22;43095;53.302;5.786;2024-01-11T15:42:02;3.80;92.30
57242;DHT22;43095;53.302;5.786;2024-01-11T15:44:30;3.70;92.40
57242;DHT22;43095;53.302;5.786;2024-01-11T15:46:58;3.70;92.40
57242;DHT22;43095;53.302;5.786;2024-01-11T15:49:26;3.70;92.40
57242;DHT22;43095;53.302;5.786;2024-01-11T15:51:54;3.70;92.50
57242;DHT22;43095;53.302;5.786;2024-01-11T15:54:24;3.70;92.50
57242;DHT22;43095;53.302;5.786;2024-01-11T15:56:53;3.70;92.60
57242;DHT22;43095;53.302;5.786;2024-01-11T15:59:21;3.70;92.70
57242;DHT22;43095;53.302;5.786;2024-01-11T16:01:51;3.70;92.70
57242;DHT22;43095;53.302;5.786;2024-01-11T16:04:32;3.70;92.80
57242;DHT22;43095;53.302;5.786;2024-01-11T16:06:59;3.80;92.80
57242;DHT22;43095;53.302;5.786;2024-01-11T16:09:27;3.90;92.60
57242;DHT22;43095;53.302;5.786;2024-01-11T16:11:57;3.90;92.50
57242;DHT22;43095;53.302;5.786;2024-01-11T16:14:30;3.90;92.40
57242;DHT22;43095;53.302;5.786;2024-01-11T16:16:58;3.90;92.60
57242;DHT22;43095;53.302;5.786;2024-01-11T16:19:25;3.90;92.70
57242;DHT22;43095;53.302;5.786;2024-01-11T16:21:53;3.90;92.70
57242;DHT22;43095;53.302;5.786;2024-01-11T16:24:20;3.90;92.70
57242;DHT22;43095;53.302;5.786;2024-01-11T16:26:47;3.90;92.70
57242;DHT22;43095;53.302;5.786;2024-01-11T16:29:15;3.90;92.70
57242;DHT22;43095;53.302;5.786;2024-01-11T16:31:43;3.90;92.90
57242;DHT22;43095;53.302;5.786;2024-01-11T16:34:10;3.90;93.00
57242;DHT22;43095;53.302;5.786;2024-01-11T16:36:38;3.90;93.20
57242;DHT22;43095;53.302;5.786;2024-01-11T16:39:06;3.90;93.20
57242;DHT22;43095;53.302;5.786;2024-01-11T16:41:37;3.90;93.30
57242;DHT22;43095;53.302;5.786;2024-01-11T16:44:05;3.80;93.40